Terminal Aerodrome Forecast
Issued by NWS

Home | Current Version | Previous Version | Text Only | Print | Product List | Glossary On
Versions: 1 2 3 4 5 6 7 8 9 10 11 12 13 14 15 16 17 18 19 20 21 22 23 24 25 26 27 28 29 30 31 32
509
FTUS44 KFWD 052059 AAA
TAFDAL
TAF AMD
KDAL 052059Z 0521/0618 VRB04KT 6SM -RA BR BKN015 OVC070
      TEMPO 0521/0601 3SM -RA BR SCT015 BKN070
     FM060200 19005KT P6SM BKN015 OVC070
     FM060600 18003KT 2SM BR SCT008
     FM061200 36004KT 5SM -DZ BR OVC006
     FM061500 01014KT P6SM OVC008=

USA.gov is the U.S. government's official web portal to all federal, state and local government web resources and services.